• Join FlightAware (Why Join?)
  • Login
  • US Flag 
08:06PM EDT


 

Airport Tracker/Info


-or-


 

Live Flight TrackerFlight Track Log ✈ GLF17 ✈ 07-May-2013 ✈ KSAV - KSAV

Flight Track Log - Related Links

Times and Time Zones

All times are in EDT time to prevent confusion due to time zone crossing. See the GLF17 flight status page for this flight to view local times or setup timezone preferences in your user account.

Time Position Orientation Groundspeed Altitude Reporting Facility
EDT Latitude Longitude Course Direction KTS MPH feet Rate Location/Type
01:29PM 32.1289 -81.2586 286° West 214 246 2,700  Level Jacksonville Center
01:30PM 32.1650 -81.3072 311° West 255 293 6,400 3,720 Climbing Jacksonville Center
01:31PM 32.2139 -81.3825 308° West 269 310 10,100 3,360 Climbing Jacksonville Center
01:33PM 32.2622 -81.5653 287° West 316 364 16,200 3,360 Climbing Atlanta Center
01:34PM 32.2853 -81.6728 284° West 330 380 19,900 3,420 Climbing Atlanta Center
01:35PM 32.1276 -81.2021 286° West  Level Estimated
01:35PM 32.3081 -81.7781 284° West 336 387 23,100  Level Atlanta Center
01:36PM 32.3311 -81.8953 283° West 347 399 25,800 2,700 Climbing Atlanta Center
01:37PM 32.3542 -82.0153 283° West 365 420 28,600 2,880 Climbing Atlanta Center
01:39PM 32.4056 -82.2503 285° West 376 433 34,500 2,460 Climbing Atlanta Center
01:40PM 32.4283 -82.3728 282° West 371 427 36,000 1,740 Climbing Atlanta Center
01:41PM 32.4547 -82.4881 285° West 371 427 38,000 1,740 Climbing Atlanta Center
01:42PM 32.4814 -82.6156 284° West 376 433 39,500 1,560 Climbing Atlanta Center
01:43PM 32.5081 -82.7531 283° West 382 440 41,200 1,380 Climbing Atlanta Center
01:44PM 32.5300 -82.8636 283° West 387 445 42,300 900 Climbing Atlanta Center
01:45PM 32.5625 -83.0036 285° West 394 453 43,000 300 Climbing Atlanta Center
01:46PM 32.5864 -83.1342 282° West 394 453 43,000  Level Atlanta Center
01:47PM 32.6144 -83.2644 284° West 400 460 43,000  Level Atlanta Center
01:48PM 32.6403 -83.4000 283° West 412 474 43,000  Level Atlanta Center
01:49PM 32.6703 -83.5356 285° West 419 482 43,000  Level Atlanta Center
01:50PM 32.6917 -83.6686 281° West 419 482 43,000  Level Atlanta Center
01:51PM 32.6897 -83.8069 269° West 419 482 43,000  Level Atlanta Center
01:52PM 32.6881 -83.9425 269° West 419 482 43,000  Level Atlanta Center
01:53PM 32.6900 -84.0783 271° West 419 482 43,000  Level Atlanta Center
01:54PM 32.6900 -84.2167 270° West 419 482 43,000  Level Atlanta Center
01:55PM 32.6875 -84.3522 269° West 419 482 43,000  Level Atlanta Center
01:56PM 32.6850 -84.4906 269° West 419 482 43,000  Level Atlanta Center
01:57PM 32.6844 -84.6261 270° West 419 482 43,000  Level Atlanta Center
01:58PM 32.6839 -84.7644 270° West 419 482 43,000  Level Atlanta Center
01:59PM 32.6869 -84.9028 272° West 419 482 43,000  Level Atlanta Center
02:00PM 32.6819 -85.0383 268° West 413 475 43,000  Level Atlanta Center
02:01PM 32.6764 -85.1739 267° West 420 483 43,000  Level Atlanta Center
02:02PM 32.6772 -85.3172 270° West 425 489 43,000  Level Atlanta Center
02:03PM 32.6736 -85.4553 268° West 425 489 43,000  Level Atlanta Center
02:04PM 32.6719 -85.5958 269° West 425 489 43,000  Level Atlanta Center
02:05PM 32.6700 -85.7364 269° West 420 483 43,000  Level Atlanta Center
02:06PM 32.6681 -85.8794 269° West 420 483 43,000  Level Atlanta Center
02:07PM 32.6639 -86.0153 268° West 425 489 43,000  Level Atlanta Center
02:08PM 32.6614 -86.1558 269° West 420 483 43,000 360 Level Atlanta Center
02:09PM 32.6569 -86.2989 268° West 425 489 43,800 900 Climbing Atlanta Center
02:10PM 32.6542 -86.4394 269° West 425 489 44,800 900 Climbing Atlanta Center
02:11PM 32.6514 -86.5822 269° West 430 495 45,600 780 Climbing Atlanta Center
02:12PM 32.6483 -86.7228 269° West 430 495 46,400 600 Climbing Atlanta Center
02:13PM 32.6453 -86.8583 269° West 423 487 46,900 300 Climbing Atlanta Center
02:14PM 32.6419 -87.0014 268° West 423 487 47,000  Climbing Atlanta Center
02:15PM 32.6364 -87.1417 267° West 423 487 47,000  Level Atlanta Center
02:16PM 32.6306 -87.2847 267° West 423 487 47,000  Level Atlanta Center
02:18PM 32.6239 -87.5628 268° West 449 517 47,000  Level Memphis Center
02:19PM 32.6206 -87.7008 268° West 442 509 47,000  Level Memphis Center
02:20PM 32.6131 -87.8442 266° West 437 503 47,000  Level Memphis Center
02:21PM 32.6092 -87.9650 268° West 432 497 47,000  Level Memphis Center
02:22PM 32.6036 -88.1058 267° West 427 491 47,000  Level Memphis Center
02:23PM 32.5975 -88.2439 267° West 427 491 47,000  Level Memphis Center
02:24PM 32.5917 -88.3897 267° West 427 491 47,000  Level Memphis Center
02:25PM 32.5853 -88.5303 267° West 427 491 47,000  Level Memphis Center
02:26PM 32.5811 -88.6686 268° West 427 491 47,000  Level Memphis Center
02:27PM 32.5747 -88.8142 267° West 427 491 47,000  Level Memphis Center
02:28PM 32.5681 -88.9719 267° West 432 497 47,000  Level Memphis Center
02:29PM 32.5614 -89.1125 267° West 432 497 47,000  Level Memphis Center
02:30PM 32.5542 -89.2506 266° West 432 497 47,000  Level Memphis Center
02:31PM 32.5469 -89.3911 267° West 432 497 47,000  Level Memphis Center
02:32PM 32.5397 -89.5317 267° West 432 497 47,000  Level Memphis Center
02:33PM 32.5322 -89.6722 266° West 432 497 47,000  Level Memphis Center
02:34PM 32.5244 -89.7981 266° West 432 497 47,000  Level Memphis Center
02:35PM 32.5189 -89.9408 267° West 432 497 47,000  Level Memphis Center
02:36PM 32.5108 -90.0814 266° West 432 497 47,000  Level Memphis Center
02:37PM 32.4861 -90.2169 258° West 427 491 47,000  Level Memphis Center
02:38PM 32.4214 -90.3353 237° Southwest 419 482 47,000  Level Memphis Center
02:39PM 32.3544 -90.4581 237° Southwest 424 488 47,000  Level Memphis Center
02:41PM 32.2417 -90.6775 239° Southwest 432 497 47,000  Level Houston Center
02:42PM 32.1703 -90.8106 238° Southwest 434 499 47,000  Level Houston Center
02:43PM 32.1083 -90.9314 239° Southwest 433 498 47,000  Level Houston Center
02:44PM 32.0428 -91.0531 238° Southwest 437 503 47,000  Level Houston Center
02:45PM 31.9761 -91.1753 237° Southwest 442 509 47,000  Level Houston Center
02:46PM 31.8997 -91.3194 238° Southwest 434 499 47,000  Level Houston Center
02:47PM 31.8361 -91.4378 238° Southwest 428 493 47,000  Level Houston Center
02:48PM 31.7717 -91.5589 238° Southwest 436 502 47,000  Level Houston Center
02:49PM 31.7058 -91.6794 237° Southwest 438 504 47,000  Level Houston Center
02:50PM 31.6414 -91.7994 238° Southwest 436 502 47,000  Level Houston Center
02:51PM 31.5750 -91.9197 237° Southwest 439 505 47,000  Level Houston Center
02:52PM 31.5014 -92.0553 238° Southwest 440 506 47,000  Level Houston Center
02:53PM 31.4353 -92.1742 237° Southwest 437 503 47,000  Level Houston Center
02:54PM 31.3703 -92.2928 237° Southwest 436 502 47,000  Level Houston Center
02:55PM 31.3028 -92.4153 237° Southwest 447 514 47,000  Level Houston Center
02:56PM 31.1958 -92.5328 223° Southwest 454 522 47,000  Level Houston Center
02:57PM 31.0803 -92.5978 206° Southwest 460 529 47,000  Level Houston Center
02:58PM 30.9714 -92.6564 205° Southwest 455 524 47,000  Level Houston Center
03:00PM 30.8575 -92.7189 205° Southwest 453 521 47,000  Level Houston Center
03:01PM 30.7203 -92.7931 205° Southwest 452 520 47,000  Level Houston Center
03:02PM 30.6208 -92.8472 205° Southwest 458 527 47,000  Level Houston Center
03:03PM 30.4822 -92.9219 205° Southwest 456 525 47,000  Level Houston Center
03:04PM 30.3647 -92.9792 203° Southwest 457 526 47,000  Level Houston Center
03:05PM 30.2353 -92.9633 174° South 479 551 47,000  Level Houston Center
03:06PM 30.1369 -92.8611 138° Southeast 484 557 47,000  Level Houston Center
03:07PM 30.1072 -92.7094 103° East 490 564 47,000  Level Houston Center
03:08PM 30.0944 -92.5542 95° East 491 565 47,000  Level Houston Center
03:09PM 30.0789 -92.3675 95° East 489 563 47,000  Level Houston Center
03:10PM 30.0644 -92.2100 96° East 493 567 47,000  Level Houston Center
03:11PM 30.0497 -92.0544 96° East 491 565 47,000  Level Houston Center
03:12PM 30.0361 -91.8989 96° East 489 563 47,000  Level Houston Center
03:13PM 30.0225 -91.7431 96° East 490 564 47,000  Level Houston Center
03:14PM 30.0061 -91.5703 96° East 494 568 47,000  Level Houston Center
03:15PM 29.9983 -91.4139 93° East 491 565 47,000  Level Houston Center
03:16PM 30.0306 -91.2636 76° East 488 562 47,000  Level Houston Center
03:17PM 30.0692 -91.0822 76° East 487 560 47,000  Level Houston Center
03:18PM 30.1003 -90.9294 77° East 491 565 47,000  Level Houston Center
03:19PM 30.1314 -90.7761 77° East 491 565 47,000  Level Houston Center
03:20PM 30.1625 -90.6233 77° East 492 566 47,000  Level Houston Center
03:21PM 30.1931 -90.4711 77° East 488 562 47,000  Level Houston Center
03:22PM 30.2247 -90.3183 76° East 489 563 47,000  Level Houston Center
03:23PM 30.2603 -90.1325 77° East 494 568 47,000  Level Houston Center
03:24PM 30.2911 -89.9772 77° East 496 571 47,000  Level Houston Center
03:25PM 30.3236 -89.8161 77° East 497 572 47,000  Level Houston Center
03:26PM 30.3533 -89.6600 78° East 498 573 47,000  Level Houston Center
03:27PM 30.3878 -89.4906 77° East 504 580 47,000  Level Houston Center
03:29PM 30.4172 -89.3353 78° East 498 573 47,000  Level Houston Center
03:30PM 30.4458 -89.1772 78° East 503 579 47,000  Level Houston Center
03:31PM 30.4750 -89.0194 78° East 502 578 47,000  Level Houston Center
03:32PM 30.5086 -88.8408 78° East 508 585 47,000  Level Houston Center
03:33PM 30.5386 -88.6844 77° East 502 578 47,000  Level Houston Center
03:34PM 30.5678 -88.5264 78° East 503 579 47,000  Level Houston Center
03:35PM 30.6017 -88.3397 78° East 499 574 47,000  Level Houston Center
03:36PM 30.6308 -88.1828 78° East 502 578 47,000  Level Houston Center
03:37PM 30.6603 -88.0247 78° East 506 582 47,000  Level Houston Center
03:38PM 30.6933 -87.8486 78° East 502 578 47,000  Level Houston Center
03:38PM 30.7000 -87.8014 81° East 502 578 47,000  Level Jacksonville Center
03:39PM 30.7289 -87.6458 78° East 502 578 47,000  Level Jacksonville Center
03:40PM 30.7578 -87.4878 78° East 502 578 47,000  Level Jacksonville Center
03:41PM 30.7842 -87.3294 79° East 502 578 47,000  Level Jacksonville Center
03:42PM 30.8125 -87.1761 78° East 502 578 47,000  Level Jacksonville Center
03:43PM 30.8406 -87.0200 78° East 502 578 47,000  Level Jacksonville Center
03:44PM 30.8686 -86.8592 78° East 502 578 47,000  Level Jacksonville Center
03:45PM 30.8964 -86.7031 78° East 502 578 47,000  Level Jacksonville Center
03:46PM 30.9214 -86.5586 79° East 502 578 47,000 -60 Level Jacksonville Center
03:47PM 30.9469 -86.4000 79° East 502 578 46,900 -900 Descending Jacksonville Center
03:48PM 30.9697 -86.2433 80° East 502 578 45,300 -2,040 Descending Jacksonville Center
03:49PM 30.9969 -86.0844 79° East 502 578 42,900 -2,160 Descending Jacksonville Center
03:50PM 31.0239 -85.9228 79° East 502 578 41,000 -960 Descending Jacksonville Center
03:51PM 31.0506 -85.7636 79° East 502 578 41,000  Level Jacksonville Center
03:52PM 31.0772 -85.5969 79° East 508 585 41,000  Level Jacksonville Center
03:53PM 31.1033 -85.4378 79° East 508 585 41,000  Level Jacksonville Center
03:54PM 31.1294 -85.2711 80° East 508 585 41,000  Level Jacksonville Center
03:55PM 31.1581 -85.0872 80° East 508 585 41,000  Level Jacksonville Center
03:56PM 31.1836 -84.9250 80° East 514 592 41,000  Level Jacksonville Center
03:57PM 31.2092 -84.7556 80° East 514 592 41,000  Level Jacksonville Center
03:58PM 31.2344 -84.5886 80° East 519 597 41,000 -600 Level Jacksonville Center
03:59PM 31.2617 -84.4214 79° East 525 604 39,900 -1,320 Descending Jacksonville Center
04:00PM 31.2844 -84.2564 81° East 520 598 38,400 -1,500 Descending Jacksonville Center
04:01PM 31.3089 -84.0939 80° East 520 598 37,000 -840 Descending Jacksonville Center
04:02PM 31.3333 -83.9264 80° East 520 598 36,800 -900 Descending Jacksonville Center
04:03PM 31.3597 -83.7564 80° East 525 604 35,300 -1,500 Descending Jacksonville Center
04:04PM 31.3839 -83.5886 80° East 525 604 33,800 -1,500 Descending Jacksonville Center
04:05PM 31.4075 -83.4208 81° East 525 604 32,400 -1,500 Descending Jacksonville Center
04:06PM 31.4331 -83.2481 80° East 525 604 30,900 -1,500 Descending Jacksonville Center
04:07PM 31.4586 -83.0778 80° East 525 604 29,400 -1,440 Descending Jacksonville Center
04:08PM 31.4775 -82.9097 82° East 525 604 28,100 -1,320 Descending Jacksonville Center
04:09PM 31.5025 -82.7439 80° East 520 598 26,800 -1,320 Descending Jacksonville Center
04:10PM 31.5272 -82.5806 80° East 515 593 25,500 -1,320 Descending Jacksonville Center
04:11PM 31.5706 -82.4317 71° East 495 570 24,200 -1,380 Descending Jacksonville Center
04:12PM 31.6014 -82.2875 76° East 473 544 22,800 -1,260 Descending Jacksonville Center
04:13PM 31.6319 -82.1483 76° East 478 550 21,700 -1,320 Descending Jacksonville Center
04:14PM 31.6747 -81.9894 72° East 470 541 20,200 -1,200 Descending Jacksonville Center
04:15PM 31.7114 -81.8594 72° East 461 531 19,300 -1,020 Descending Jacksonville Center
04:16PM 31.7517 -81.7053 73° East 454 522 18,200 -1,020 Descending Jacksonville Center
04:17PM 31.7900 -81.5628 72° East 454 522 17,300 -1,320 Descending Jacksonville Center
04:18PM 31.8200 -81.4428 74° East 442 509 15,600 -2,040 Descending Jacksonville Center
04:19PM 31.8706 -81.3122 65° Northeast 412 474 13,300 -2,040 Descending Jacksonville Center
04:20PM 31.9239 -81.2231 55° Northeast 384 442 11,600 -1,980 Descending Jacksonville Center
04:21PM 31.9644 -81.1392 60° Northeast 301 346 9,400 -2,460 Descending Jacksonville Center
04:22PM 32.0008 -81.0578 62° Northeast 278 320 6,700 -2,220 Descending Jacksonville Center
04:23PM 32.0519 -80.9783 53° Northeast 269 310 5,000 -1,560 Descending Jacksonville Center
04:24PM 32.1147 -80.9842 355° North 206 237 3,600 -1,200 Descending Jacksonville Center
04:25PM 32.1239 -81.0406 281° West 142 163 2,600 -1,020 Descending Jacksonville Center
04:27PM 32.1276 -81.2021 272° West  Level Estimated
04:34PM 32.1276 -81.2021 16° North  Level Estimated
04:35PM 32.1276 -81.2021 16° North  Level Estimated
04:36PM 32.1276 -81.2021 16° North  Level Estimated
04:37PM 32.1276 -81.2021 16° North  Level Estimated
04:38PM 32.1276 -81.2021 16° North  Level Estimated